world map with HAN marked

HAN - Airport

This information may not be accurate or current and is not valid for navigation or flight planning. No warranty of fitness for any purpose is made or implied.

flag of Vietnam

Donate via PayPal

Additional information is available on the NEW Great Circle Mapper

Location
City:  Hanoi, Vietnam
Name:Noi Bai International Airport
ICAO / IATA:VVNB / HAN

Details
Type:Airport (Aerodrome, Airfield)
Use:Public/Civil, Military
Latitude:21°13'16"N (21.221192)
Longitude:105°48'26"E (105.807178)
Datum:WGS 1984
Elevation:39 ft (12 m)
Runways:2
Longest:12466 × 148 ft (3800 × 45 m)

Time
Timezone:UTC+7 (DST+9)
Local Time:

Weather
METAR:VVNB  181030Z 29005KT 8000 NSC 16/06 Q1025 NOSIG
TAF:VVNB  180500Z 1806/1906 05008KT 9999 SCT020

Related Locations
Nearby:
Farthest:IQQ: 12184 mi / 19608 km
Iquique [Diego Aracena Intl], TA, CL

Find:

   beyond  
but within

Other Information
Maps:
Sources:

  


 


Great Circle Mapper   Great Circle Mapper
Great Circle Mapper FAQ   Great Circle Mapper FAQ
  Karl's Home Page
KLSē   KLSē Home
   GC on Facebook
Airlines of the World   Airlines of the World
Donate via PayPal


Copyright © 2004-2017, Karl L. Swartz. All rights reserved.
All trademarks mentioned herein belong to their respective owners.

Please see credits for attribution and copyright information.

Karl Swartz <karl@kls2.com>
  Powered by FreeBSD
Valid HTML 4.01!
Labeled with ICRA
hCard Microformat
Geo Microformat